createdAt,value
2018-10-18T00:00:45.846Z,23.00
2018-10-18T00:03:12.272Z,22.90
2018-10-18T00:05:38.598Z,22.90
2018-10-18T00:08:05.004Z,22.90
2018-10-18T00:10:31.390Z,22.90
2018-10-18T00:12:57.764Z,22.90
2018-10-18T00:15:24.357Z,22.90
2018-10-18T00:17:50.737Z,22.90
2018-10-18T00:20:17.471Z,22.90
2018-10-18T00:22:44.585Z,22.90
2018-10-18T00:25:10.984Z,23.00
2018-10-18T00:27:37.987Z,22.90
2018-10-18T00:30:04.402Z,22.90
2018-10-18T00:32:30.774Z,23.00
2018-10-18T00:34:57.150Z,22.90
2018-10-18T00:37:23.539Z,22.90
2018-10-18T00:39:49.966Z,22.90
2018-10-18T00:42:16.375Z,22.90
2018-10-18T00:44:42.781Z,23.00
2018-10-18T00:47:09.154Z,22.90
2018-10-18T00:49:35.541Z,22.90
2018-10-18T00:52:01.928Z,22.90
2018-10-18T00:54:28.298Z,23.00
2018-10-18T00:56:54.702Z,22.90
2018-10-18T00:59:21.088Z,22.90
2018-10-18T01:01:47.502Z,22.90
2018-10-18T01:04:13.873Z,22.90
2018-10-18T01:06:40.420Z,22.90
2018-10-18T01:09:06.823Z,22.90
2018-10-18T01:11:33.221Z,22.90
2018-10-18T01:13:59.671Z,22.90
2018-10-18T01:16:26.010Z,22.90
2018-10-18T01:18:52.417Z,22.90
2018-10-18T01:21:18.816Z,22.90
2018-10-18T01:23:45.223Z,22.90
2018-10-18T01:26:11.707Z,22.90
2018-10-18T01:28:38.259Z,22.90
2018-10-18T01:31:04.674Z,22.90
2018-10-18T01:33:31.024Z,22.90
2018-10-18T01:35:57.429Z,22.90
2018-10-18T01:38:23.822Z,22.90
2018-10-18T01:40:50.205Z,22.90
2018-10-18T01:43:16.571Z,22.90
2018-10-18T01:45:42.964Z,22.90
2018-10-18T01:48:09.555Z,22.90
2018-10-18T01:50:35.891Z,22.90
2018-10-18T01:53:02.258Z,22.90
2018-10-18T01:55:28.643Z,22.90
2018-10-18T01:57:55.049Z,22.90
2018-10-18T02:00:21.432Z,22.90
2018-10-18T02:02:47.831Z,22.90
2018-10-18T02:05:14.271Z,22.90
2018-10-18T02:07:40.661Z,22.90
2018-10-18T02:10:07.246Z,22.90
2018-10-18T02:12:33.688Z,22.90
2018-10-18T02:15:00.051Z,22.90
2018-10-18T02:17:26.435Z,22.90
2018-10-18T02:19:52.962Z,22.90
2018-10-18T02:22:19.360Z,22.90
2018-10-18T02:24:45.795Z,22.90
2018-10-18T02:27:12.155Z,22.90
2018-10-18T02:29:38.560Z,22.90
2018-10-18T02:32:04.921Z,22.90
2018-10-18T02:34:31.307Z,22.90
2018-10-18T02:36:57.703Z,22.90
2018-10-18T02:39:24.095Z,22.90
2018-10-18T02:41:50.545Z,22.90
2018-10-18T02:44:16.956Z,22.90
2018-10-18T02:46:43.354Z,22.90
2018-10-18T02:49:09.769Z,22.90
2018-10-18T02:51:36.166Z,22.90
2018-10-18T02:54:02.581Z,22.90
2018-10-18T02:56:28.938Z,22.90
2018-10-18T02:58:55.324Z,22.90
2018-10-18T03:01:21.761Z,22.90
2018-10-18T03:03:48.167Z,22.90
2018-10-18T03:06:14.609Z,22.90
2018-10-18T03:08:50.467Z,22.90
2018-10-18T03:11:16.869Z,22.90
2018-10-18T03:13:43.246Z,22.90
2018-10-18T03:16:09.841Z,22.90
2018-10-18T03:18:36.015Z,22.90
2018-10-18T03:21:02.409Z,22.90
2018-10-18T03:23:28.834Z,22.90
2018-10-18T03:25:55.206Z,22.90
2018-10-18T03:28:21.575Z,22.90
2018-10-18T03:30:47.946Z,22.90
2018-10-18T03:33:14.306Z,22.90
2018-10-18T03:35:40.703Z,22.90
2018-10-18T03:38:07.073Z,22.90
2018-10-18T03:40:33.449Z,22.90
2018-10-18T03:42:59.818Z,22.90
2018-10-18T03:45:26.396Z,22.90
2018-10-18T03:47:52.776Z,22.90
2018-10-18T03:50:19.174Z,22.90
2018-10-18T03:52:45.568Z,22.90
2018-10-18T03:55:11.965Z,22.90
2018-10-18T03:57:38.336Z,22.90
2018-10-18T04:00:04.831Z,22.90
2018-10-18T04:02:31.150Z,22.90
2018-10-18T04:04:57.668Z,22.90
2018-10-18T04:07:24.096Z,22.90
2018-10-18T04:09:50.483Z,22.90
2018-10-18T04:12:16.974Z,22.90
2018-10-18T04:14:43.283Z,22.90
2018-10-18T04:17:09.706Z,22.90
2018-10-18T04:19:36.100Z,22.90
2018-10-18T04:22:02.466Z,22.90
2018-10-18T04:24:28.862Z,22.90
2018-10-18T04:26:55.252Z,22.90
2018-10-18T04:29:21.744Z,22.90
2018-10-18T04:31:48.101Z,22.90
2018-10-18T04:34:14.521Z,23.00
2018-10-18T04:36:40.878Z,23.00
2018-10-18T04:39:07.800Z,23.20
2018-10-18T04:41:34.196Z,23.00
2018-10-18T04:44:00.610Z,23.10
2018-10-18T04:46:27.815Z,23.10
2018-10-18T04:48:54.296Z,23.10
2018-10-18T04:51:20.602Z,23.10
2018-10-18T04:53:47.115Z,23.10
2018-10-18T04:56:13.487Z,23.10
2018-10-18T04:58:39.882Z,23.20
2018-10-18T05:01:06.303Z,23.20
2018-10-18T05:03:32.684Z,23.20
2018-10-18T05:06:02.395Z,23.20
2018-10-18T05:08:29.109Z,23.20
2018-10-18T05:10:55.483Z,23.20
2018-10-18T05:13:21.876Z,23.20
2018-10-18T05:15:48.277Z,23.20
2018-10-18T05:18:14.841Z,22.40
2018-10-18T05:20:41.227Z,23.20
2018-10-18T05:23:08.367Z,23.20
2018-10-18T05:25:35.104Z,23.20
2018-10-18T05:28:01.761Z,23.20
2018-10-18T05:30:28.145Z,23.20
2018-10-18T05:32:54.527Z,23.20
2018-10-18T05:35:20.922Z,23.20
2018-10-18T05:37:47.304Z,23.10
2018-10-18T05:40:13.714Z,23.10
2018-10-18T05:42:40.125Z,23.10
2018-10-18T05:45:06.932Z,23.10
2018-10-18T05:47:33.304Z,23.20
2018-10-18T05:49:59.685Z,23.20
2018-10-18T05:52:26.313Z,23.30
2018-10-18T05:54:52.745Z,23.30
2018-10-18T05:57:19.125Z,23.20
2018-10-18T05:59:45.523Z,23.30
2018-10-18T06:02:11.984Z,23.30
2018-10-18T06:04:38.383Z,23.30
2018-10-18T06:07:04.858Z,23.30
2018-10-18T06:09:32.669Z,23.40
2018-10-18T06:11:59.364Z,23.30
2018-10-18T06:14:25.769Z,23.40
2018-10-18T06:16:52.170Z,23.40
2018-10-18T06:19:18.620Z,23.40
2018-10-18T06:21:44.951Z,23.40
2018-10-18T06:24:11.394Z,23.40
2018-10-18T06:26:37.773Z,23.40
2018-10-18T06:29:04.240Z,23.50
2018-10-18T06:31:30.599Z,23.40
2018-10-18T06:33:56.977Z,23.40
2018-10-18T06:36:23.382Z,23.40
2018-10-18T06:38:51.615Z,23.40
2018-10-18T06:41:18.051Z,23.40
2018-10-18T06:43:44.399Z,23.30
2018-10-18T06:46:12.173Z,23.30
2018-10-18T06:48:38.917Z,23.30
2018-10-18T06:51:05.301Z,23.30
2018-10-18T06:53:31.865Z,23.30
2018-10-18T06:55:58.312Z,23.30
2018-10-18T06:58:24.700Z,23.30
2018-10-18T07:00:51.095Z,23.30
2018-10-18T07:03:17.466Z,23.30
2018-10-18T07:05:43.867Z,23.30
2018-10-18T07:08:11.194Z,23.40
2018-10-18T07:10:37.684Z,23.40
2018-10-18T07:13:04.112Z,23.30
2018-10-18T07:15:31.478Z,23.30
2018-10-18T07:17:57.921Z,23.30
2018-10-18T07:20:24.318Z,23.30
2018-10-18T07:22:50.741Z,23.30
2018-10-18T07:25:17.203Z,23.30
2018-10-18T07:27:43.898Z,23.30
2018-10-18T07:30:10.816Z,23.30
2018-10-18T07:32:37.247Z,23.30
2018-10-18T07:35:03.754Z,23.30
2018-10-18T07:37:30.059Z,23.30
2018-10-18T07:39:56.450Z,23.30
2018-10-18T07:42:22.854Z,23.30
2018-10-18T07:44:49.263Z,23.30
2018-10-18T07:47:15.664Z,23.20
2018-10-18T07:49:42.044Z,23.30
2018-10-18T07:52:08.425Z,23.20
2018-10-18T07:54:34.827Z,23.20
2018-10-18T07:57:01.252Z,23.20
2018-10-18T07:59:27.799Z,23.20
2018-10-18T08:01:54.210Z,23.20
2018-10-18T08:04:20.616Z,23.30
2018-10-18T08:06:47.042Z,23.30
2018-10-18T08:09:13.878Z,23.30
2018-10-18T08:11:40.644Z,23.30
2018-10-18T08:14:07.106Z,23.30
2018-10-18T08:16:33.551Z,23.30
2018-10-18T08:18:59.992Z,23.30
2018-10-18T08:21:26.354Z,23.30
2018-10-18T08:23:52.728Z,23.30
2018-10-18T08:26:19.111Z,23.30
2018-10-18T08:28:45.511Z,23.30
2018-10-18T08:31:12.001Z,23.30
2018-10-18T08:33:38.536Z,23.30
2018-10-18T08:36:04.928Z,23.30
2018-10-18T08:38:31.286Z,23.30
2018-10-18T08:40:57.689Z,23.30
2018-10-18T08:43:24.112Z,23.30
2018-10-18T08:45:50.839Z,23.30
2018-10-18T08:48:17.265Z,23.30
2018-10-18T08:50:43.645Z,23.30
2018-10-18T08:53:10.064Z,23.40
2018-10-18T08:55:36.532Z,23.40
2018-10-18T08:58:02.954Z,23.50
2018-10-18T09:00:29.356Z,23.50
2018-10-18T09:02:55.768Z,23.60
2018-10-18T09:05:22.193Z,23.60
2018-10-18T09:07:49.219Z,23.60
2018-10-18T09:10:16.652Z,23.60
2018-10-18T09:12:43.049Z,23.60
2018-10-18T09:15:10.323Z,23.60
2018-10-18T09:17:37.179Z,23.70
2018-10-18T09:20:03.593Z,23.60
2018-10-18T09:22:30.029Z,23.60
2018-10-18T09:24:56.420Z,23.70
2018-10-18T09:27:22.803Z,23.70
2018-10-18T09:29:49.325Z,23.60
2018-10-18T09:32:15.727Z,23.60
2018-10-18T09:34:42.123Z,23.60
2018-10-18T09:37:08.571Z,23.60
2018-10-18T09:39:37.017Z,23.70
2018-10-18T09:42:04.505Z,23.70
2018-10-18T09:44:30.931Z,23.70
2018-10-18T09:46:57.245Z,23.70
2018-10-18T09:49:23.663Z,23.70
2018-10-18T09:51:50.097Z,23.70
2018-10-18T09:54:16.486Z,23.70
2018-10-18T09:56:42.875Z,23.70
2018-10-18T09:59:09.259Z,23.80
2018-10-18T10:01:41.412Z,23.80
2018-10-18T10:04:07.844Z,23.70
2018-10-18T10:06:34.258Z,23.80
2018-10-18T10:09:00.730Z,23.80
2018-10-18T10:11:27.134Z,23.80
2018-10-18T10:13:53.678Z,23.80
2018-10-18T10:16:20.105Z,23.80
2018-10-18T10:18:46.802Z,23.70
2018-10-18T10:21:13.437Z,23.80
2018-10-18T10:23:40.071Z,23.80
2018-10-18T10:26:06.506Z,23.80
2018-10-18T10:28:32.884Z,23.80
2018-10-18T10:31:01.395Z,23.80
2018-10-18T10:33:28.242Z,23.80
2018-10-18T10:35:54.644Z,23.80
2018-10-18T10:38:21.188Z,23.80
2018-10-18T10:40:47.708Z,23.80
2018-10-18T10:43:14.087Z,23.80
2018-10-18T10:45:40.555Z,23.80
2018-10-18T10:48:07.029Z,23.80
2018-10-18T10:50:33.454Z,23.80
2018-10-18T10:52:59.882Z,23.80
2018-10-18T10:55:26.340Z,23.80
2018-10-18T10:57:52.786Z,23.80
2018-10-18T11:00:19.213Z,23.80
2018-10-18T11:02:45.579Z,23.80
2018-10-18T11:05:11.999Z,23.80
2018-10-18T11:07:38.440Z,23.80
2018-10-18T11:10:04.826Z,23.80
2018-10-18T11:12:31.475Z,23.80
2018-10-18T11:14:57.728Z,23.80
2018-10-18T11:17:24.173Z,23.80
2018-10-18T11:19:50.590Z,23.70
2018-10-18T11:22:17.713Z,23.70
2018-10-18T11:24:44.209Z,23.70
2018-10-18T11:27:10.665Z,23.70
2018-10-18T11:29:36.976Z,23.70
2018-10-18T11:32:03.416Z,23.70
2018-10-18T11:34:29.788Z,23.70
2018-10-18T11:36:56.399Z,23.70
2018-10-18T11:39:22.823Z,23.70
2018-10-18T11:41:49.226Z,23.70
2018-10-18T11:44:15.696Z,23.70
2018-10-18T11:46:42.014Z,23.70
2018-10-18T11:49:08.404Z,23.70
2018-10-18T11:51:34.910Z,23.70
2018-10-18T11:54:01.254Z,23.70
2018-10-18T11:56:27.688Z,23.60
2018-10-18T11:58:54.151Z,23.70
2018-10-18T12:01:20.717Z,23.60
2018-10-18T12:03:47.135Z,23.60
2018-10-18T12:06:13.533Z,23.60
2018-10-18T12:08:39.958Z,23.60
2018-10-18T12:11:06.395Z,23.60
2018-10-18T12:13:33.002Z,23.60
2018-10-18T12:15:59.397Z,23.60
2018-10-18T12:18:25.859Z,23.60
2018-10-18T12:20:52.293Z,23.60
2018-10-18T12:23:18.682Z,23.60
2018-10-18T12:25:45.096Z,23.60
2018-10-18T12:28:11.556Z,23.60
2018-10-18T12:30:37.955Z,23.60
2018-10-18T12:33:04.355Z,23.60
2018-10-18T12:35:30.817Z,23.60
2018-10-18T12:37:57.388Z,23.60
2018-10-18T12:40:23.837Z,23.50
2018-10-18T12:42:51.053Z,23.50
2018-10-18T12:45:17.463Z,23.60
2018-10-18T12:47:43.843Z,23.60
2018-10-18T12:50:10.250Z,23.50
2018-10-18T12:52:36.625Z,23.60
2018-10-18T12:55:03.009Z,23.60
2018-10-18T12:57:29.449Z,23.60
2018-10-18T12:59:56.371Z,23.60
2018-10-18T13:02:23.234Z,23.60
2018-10-18T13:04:49.590Z,23.60
2018-10-18T13:07:16.040Z,23.60
2018-10-18T13:09:42.451Z,23.60
2018-10-18T13:12:08.976Z,23.60
2018-10-18T13:14:35.286Z,23.60
2018-10-18T13:17:01.687Z,23.60
2018-10-18T13:19:28.085Z,23.60
2018-10-18T13:21:54.534Z,23.60
2018-10-18T13:24:21.473Z,23.60
2018-10-18T13:26:47.886Z,23.60
2018-10-18T13:29:14.287Z,23.60
2018-10-18T13:31:40.677Z,23.50
2018-10-18T13:34:07.278Z,23.60
2018-10-18T13:36:33.589Z,23.60
2018-10-18T13:39:00.055Z,23.50
2018-10-18T13:41:26.831Z,23.50
2018-10-18T13:43:53.250Z,23.50
2018-10-18T13:46:19.789Z,23.40
2018-10-18T13:48:46.151Z,23.30
2018-10-18T13:51:12.703Z,23.30
2018-10-18T13:53:42.112Z,23.20
2018-10-18T13:56:09.502Z,23.20
2018-10-18T13:58:35.996Z,23.20
2018-10-18T14:01:02.498Z,23.10
2018-10-18T14:03:29.426Z,23.20
2018-10-18T14:05:55.829Z,23.20
2018-10-18T14:08:22.331Z,23.20
2018-10-18T14:10:48.662Z,23.20
2018-10-18T14:13:15.102Z,23.20
2018-10-18T14:15:41.554Z,23.10
2018-10-18T14:18:08.005Z,23.10
2018-10-18T14:20:34.367Z,23.10
2018-10-18T14:23:00.952Z,23.10
2018-10-18T14:25:27.407Z,23.10
2018-10-18T14:27:53.820Z,23.00
2018-10-18T14:30:20.305Z,23.00
2018-10-18T14:32:46.695Z,23.10
2018-10-18T14:35:13.155Z,23.10
2018-10-18T14:37:39.764Z,23.20
2018-10-18T14:40:07.133Z,23.20
2018-10-18T14:42:33.664Z,23.20
2018-10-18T14:45:00.156Z,23.20
2018-10-18T14:47:26.637Z,23.20
2018-10-18T14:49:52.994Z,23.20
2018-10-18T14:52:19.472Z,23.20
2018-10-18T14:54:46.090Z,23.20
2018-10-18T14:57:13.126Z,23.20
2018-10-18T14:59:39.825Z,23.20
2018-10-18T15:02:06.339Z,23.20
2018-10-18T15:04:33.484Z,23.20
2018-10-18T15:06:59.885Z,23.20
2018-10-18T15:09:26.371Z,23.20
2018-10-18T15:11:52.807Z,23.20
2018-10-18T15:14:19.360Z,23.20
2018-10-18T15:16:45.781Z,23.20
2018-10-18T15:19:12.433Z,23.20
2018-10-18T15:21:39.149Z,23.20
2018-10-18T15:24:05.630Z,23.20
2018-10-18T15:26:32.183Z,23.20
2018-10-18T15:28:58.430Z,23.20
2018-10-18T15:31:24.863Z,23.20
2018-10-18T15:33:51.287Z,23.20
2018-10-18T15:36:17.783Z,23.20
2018-10-18T15:38:44.405Z,23.20
2018-10-18T15:41:10.726Z,23.20
2018-10-18T15:43:37.107Z,23.20
2018-10-18T15:46:03.571Z,23.20
2018-10-18T15:48:30.007Z,23.20
2018-10-18T15:50:56.404Z,23.20
2018-10-18T15:53:22.825Z,23.20
2018-10-18T15:55:49.525Z,23.20
2018-10-18T15:58:15.949Z,23.20
2018-10-18T16:00:42.341Z,23.20
2018-10-18T16:03:08.810Z,23.10
2018-10-18T16:05:35.126Z,23.10
2018-10-18T16:08:01.516Z,23.10
2018-10-18T16:10:27.904Z,23.10
2018-10-18T16:12:54.286Z,23.10
2018-10-18T16:15:20.717Z,23.20
2018-10-18T16:17:47.197Z,23.10
2018-10-18T16:20:13.602Z,23.20
2018-10-18T16:22:39.993Z,23.20
2018-10-18T16:25:06.745Z,23.20
2018-10-18T16:27:33.206Z,23.20
2018-10-18T16:29:59.603Z,23.20
2018-10-18T16:32:25.979Z,23.20
2018-10-18T16:34:52.404Z,23.20
2018-10-18T16:37:18.791Z,23.20
2018-10-18T16:39:45.232Z,23.20
2018-10-18T16:42:11.647Z,23.20
2018-10-18T16:44:38.015Z,23.20
2018-10-18T16:47:04.399Z,23.20
2018-10-18T16:49:30.789Z,23.20
2018-10-18T16:51:57.232Z,23.20
2018-10-18T16:54:23.751Z,23.20
2018-10-18T16:56:50.133Z,23.20
2018-10-18T16:59:16.506Z,23.10
2018-10-18T17:01:43.031Z,23.10
2018-10-18T17:04:09.528Z,23.10
2018-10-18T17:06:35.894Z,23.10
2018-10-18T17:09:02.508Z,23.10
2018-10-18T17:11:28.952Z,23.10
2018-10-18T17:13:55.427Z,23.10
2018-10-18T17:16:21.822Z,23.10
2018-10-18T17:18:48.266Z,23.10
2018-10-18T17:21:14.736Z,23.10
2018-10-18T17:23:41.265Z,23.10
2018-10-18T17:26:07.691Z,23.10
2018-10-18T17:28:34.138Z,23.10
2018-10-18T17:31:00.595Z,23.10
2018-10-18T17:33:27.852Z,23.10
2018-10-18T17:35:54.319Z,23.10
2018-10-18T17:38:20.814Z,23.10
2018-10-18T17:40:47.336Z,23.00
2018-10-18T17:43:13.629Z,23.10
2018-10-18T17:45:40.063Z,23.00
2018-10-18T17:48:06.555Z,23.10
2018-10-18T17:50:32.963Z,23.00
2018-10-18T17:52:59.427Z,23.00
2018-10-18T17:55:25.845Z,23.00
2018-10-18T17:57:52.307Z,23.00
2018-10-18T18:00:18.764Z,23.00
2018-10-18T18:02:45.203Z,23.00
2018-10-18T18:05:12.436Z,23.00
2018-10-18T18:07:39.023Z,23.00
2018-10-18T18:10:05.556Z,23.00
2018-10-18T18:12:32.007Z,23.00
2018-10-18T18:14:58.521Z,23.00
2018-10-18T18:17:24.994Z,23.00
2018-10-18T18:19:51.414Z,23.00
2018-10-18T18:22:17.901Z,23.00
2018-10-18T18:24:44.453Z,23.00
2018-10-18T18:27:10.868Z,23.00
2018-10-18T18:29:37.297Z,23.00
2018-10-18T18:32:03.736Z,23.00
2018-10-18T18:34:30.183Z,23.00
2018-10-18T18:36:56.680Z,23.00
2018-10-18T18:39:23.092Z,23.00
2018-10-18T18:41:49.491Z,23.00
2018-10-18T18:44:16.072Z,23.00
2018-10-18T18:46:42.652Z,23.00
2018-10-18T18:49:09.042Z,22.90
2018-10-18T18:51:35.739Z,22.90
2018-10-18T18:54:02.167Z,22.90
2018-10-18T18:56:28.599Z,22.90
2018-10-18T18:58:55.071Z,22.90
2018-10-18T19:01:21.522Z,22.90
2018-10-18T19:03:47.964Z,22.90
2018-10-18T19:06:14.372Z,22.90
2018-10-18T19:08:40.795Z,22.90
2018-10-18T19:11:07.303Z,22.90
2018-10-18T19:13:34.422Z,22.90
2018-10-18T19:16:00.867Z,22.90
2018-10-18T19:18:27.315Z,22.90
2018-10-18T19:20:53.780Z,22.90
2018-10-18T19:23:20.209Z,22.90
2018-10-18T19:25:46.556Z,22.90
2018-10-18T19:28:12.934Z,22.90
2018-10-18T19:30:39.361Z,22.90
2018-10-18T19:33:05.759Z,22.90
2018-10-18T19:35:32.244Z,22.90
2018-10-18T19:37:58.746Z,22.90
2018-10-18T19:40:25.071Z,22.90
2018-10-18T19:42:51.490Z,22.90
2018-10-18T19:45:17.871Z,22.90
2018-10-18T19:47:44.285Z,22.90
2018-10-18T19:50:10.862Z,22.90
2018-10-18T19:52:37.405Z,22.90
2018-10-18T19:55:03.648Z,22.90
2018-10-18T19:57:30.069Z,22.90
2018-10-18T19:59:56.477Z,22.90
2018-10-18T20:02:22.908Z,22.80
2018-10-18T20:04:49.372Z,22.80
2018-10-18T20:07:15.779Z,22.80
2018-10-18T20:09:42.398Z,22.90
2018-10-18T20:12:08.830Z,22.80
2018-10-18T20:14:35.202Z,22.80
2018-10-18T20:17:01.644Z,22.80
2018-10-18T20:19:28.081Z,22.80
2018-10-18T20:21:54.848Z,22.80
2018-10-18T20:24:21.674Z,22.90
2018-10-18T20:26:48.240Z,22.80
2018-10-18T20:29:14.664Z,22.80
2018-10-18T20:31:41.142Z,22.80
2018-10-18T20:34:07.813Z,22.80
2018-10-18T20:36:34.329Z,22.80
2018-10-18T20:39:00.744Z,22.80
2018-10-18T20:41:27.637Z,22.70
2018-10-18T20:43:54.052Z,22.70
2018-10-18T20:46:20.525Z,22.70
2018-10-18T20:48:46.977Z,22.70
2018-10-18T20:51:13.470Z,22.70
2018-10-18T20:53:39.972Z,22.70
2018-10-18T20:56:06.430Z,22.70
2018-10-18T20:58:32.843Z,22.70
2018-10-18T21:00:59.245Z,22.70
2018-10-18T21:03:26.750Z,22.60
2018-10-18T21:05:53.145Z,22.60
2018-10-18T21:08:19.572Z,22.60
2018-10-18T21:10:46.126Z,22.70
2018-10-18T21:13:12.593Z,22.60
2018-10-18T21:15:38.964Z,22.60
2018-10-18T21:18:05.440Z,22.60
2018-10-18T21:20:31.845Z,22.60
2018-10-18T21:22:58.243Z,22.60
2018-10-18T21:25:24.615Z,22.60
2018-10-18T21:27:51.041Z,22.60
2018-10-18T21:30:17.372Z,22.60
2018-10-18T21:32:43.745Z,22.60
2018-10-18T21:35:10.157Z,22.60
2018-10-18T21:37:36.550Z,22.60
2018-10-18T21:40:02.950Z,22.60
2018-10-18T21:42:29.371Z,22.50
2018-10-18T21:44:55.834Z,22.60
2018-10-18T21:47:22.307Z,22.60
2018-10-18T21:49:48.695Z,22.60
2018-10-18T21:52:15.095Z,22.60
2018-10-18T21:54:41.533Z,22.60
2018-10-18T21:57:07.973Z,22.60
2018-10-18T21:59:34.358Z,22.60
2018-10-18T22:02:00.755Z,22.60
2018-10-18T22:04:27.147Z,22.60
2018-10-18T22:06:53.541Z,22.60
2018-10-18T22:09:19.951Z,22.60
2018-10-18T22:11:46.338Z,22.60
2018-10-18T22:14:12.763Z,22.60
2018-10-18T22:16:39.327Z,22.60
2018-10-18T22:19:06.723Z,22.60
2018-10-18T22:21:33.097Z,22.60
2018-10-18T22:23:59.536Z,22.60
2018-10-18T22:26:25.966Z,22.50
2018-10-18T22:28:52.414Z,22.50
2018-10-18T22:31:18.768Z,22.60
2018-10-18T22:33:45.836Z,22.50
2018-10-18T22:36:12.282Z,22.50
2018-10-18T22:38:38.671Z,22.50
2018-10-18T22:41:05.050Z,22.50
2018-10-18T22:43:31.423Z,22.60
2018-10-18T22:45:59.420Z,22.50
2018-10-18T22:48:26.100Z,22.50
2018-10-18T22:50:52.491Z,22.60
2018-10-18T22:53:18.873Z,22.50
2018-10-18T22:55:45.267Z,22.60
2018-10-18T22:58:11.630Z,22.50
2018-10-18T23:00:38.023Z,22.60
2018-10-18T23:03:04.392Z,22.50
2018-10-18T23:05:30.723Z,22.50
2018-10-18T23:07:57.107Z,22.50
2018-10-18T23:10:23.476Z,22.50
2018-10-18T23:12:49.855Z,22.50
2018-10-18T23:15:16.293Z,22.50
2018-10-18T23:17:42.708Z,22.50
2018-10-18T23:20:09.612Z,22.50
2018-10-18T23:22:36.025Z,22.50
2018-10-18T23:25:02.391Z,22.50
2018-10-18T23:27:30.914Z,22.50
2018-10-18T23:29:57.290Z,22.50
2018-10-18T23:32:23.713Z,22.50
2018-10-18T23:34:50.066Z,22.50
2018-10-18T23:37:16.436Z,22.50
2018-10-18T23:39:42.876Z,22.50
2018-10-18T23:42:09.254Z,22.50
2018-10-18T23:44:35.665Z,22.50
2018-10-18T23:47:02.096Z,22.50
2018-10-18T23:49:28.398Z,22.50
2018-10-18T23:51:54.746Z,22.50
2018-10-18T23:54:21.168Z,22.50
2018-10-18T23:56:47.602Z,22.50
2018-10-18T23:59:14.101Z,22.40
